KAUW/AUW METAR and TAF weather

Enter ICAO airport designator
Station Type Date Time Source
KAUW METAR 2023/02/05 23:54 UTC NOAA

KAUW 052354Z AUTO 31006KT 10SM OVC017 M03/M08 A3001 RMK AO2 SLP188 T10281078 11006 21028 53029


Station Type Date Time Source
KAUW Decoded METAR 2023/02/05 23:54 UTC NOAA

WAUSAU DOWNTOWN AIRPORT, WI, United States (KAUW) 44-56N 089-37W 362M
Feb 05, 2023 - 06:54 PM EST / 2023.02.05 2354 UTC
Wind: from the NW (310 degrees) at 7 MPH (6 KT):0
Visibility: 10 mile(s):0
Sky conditions: overcast
Temperature: 27.0 F (-2.8 C)
Windchill: 19 F (-7 C):1
Dew Point: 18.0 F (-7.8 C)
Relative Humidity: 68%
Pressure (altimeter): 30.01 in. Hg (1016 hPa)
Pressure tendency: 0.09 inches (2.9 hPa) higher than three hours ago
ob: KAUW 052354Z AUTO 31006KT 10SM OVC017 M03/M08 A3001 RMK AO2 SLP188 T10281078 11006 21028 53029
cycle: 0

Station Type Date Time Source
KAUW TAF 2023/02/05 18:28 UTC NOAA

TAF KAUW 051726Z 0518/0618 33009KT P6SM BKN100
FM052000 33007KT P6SM SCT020
FM060400 VRB03KT P6SM SCT026
FM061200 15007KT P6SM BKN018
FM061600 15010G15KT P6SM OVC028

Example: see airport list